• Join FlightAware (Why Join?)
  • Login
  • US Flag 
09:33PM EDT


 

Airport Tracker/Info


-or-


 

Live Flight TrackerFlight Track Log ✈ FST1 ✈ 28-Apr-2013 ✈ KMWO - 5W4

Flight Track Log - Related Links

Times and Time Zones

All times are in EDT time to prevent confusion due to time zone crossing. See the FST1 flight status page for this flight to view local times or setup timezone preferences in your user account.

Time Position Orientation Groundspeed Altitude Reporting Facility
EDT Latitude Longitude Course Direction KTS MPH feet Rate Location/Type
11:07AM 39.4986 -84.3722 99° East 113 130 3,400  Level Indianapolis Center
11:08AM 39.4933 -84.3297 99° East 115 132 4,600 1,140 Climbing Indianapolis Center
11:09AM 39.4825 -84.2839 107° East 124 143 5,800 1,140 Climbing Indianapolis Center
11:10AM 39.4658 -84.2572 129° Southeast 116 133 6,800 1,260 Climbing Indianapolis Center
11:11AM 39.4456 -84.2194 125° Southeast 123 142 8,100 1,080 Climbing Indianapolis Center
11:12AM 39.4275 -84.1847 124° Southeast 121 139 9,100 540 Climbing Indianapolis Center
11:13AM 39.3994 -84.1406 129° Southeast 167 192 9,200  Climbing Indianapolis Center
11:14AM 39.3758 -84.0942 123° Southeast 179 206 9,100  Descending Indianapolis Center
11:14AM 39.3694 -84.0806 121° Southeast 175 201 9,200 60 Climbing Indianapolis Center
11:15AM 39.3431 -84.0333 126° Southeast 179 206 9,200  Level Indianapolis Center
11:15AM 39.3419 -84.0278 104° East 176 203 9,200 -120 Level Indianapolis Center
11:16AM 39.3106 -83.9667 124° Southeast 173 199 9,100  Descending Indianapolis Center
11:17AM 39.2864 -83.9236 126° Southeast 177 204 9,200  Climbing Indianapolis Center
11:18AM 39.2608 -83.8744 124° Southeast 177 204 9,200  Level Indianapolis Center
11:18AM 39.2544 -83.8603 120° Southeast 177 204 9,200  Level Indianapolis Center
11:19AM 39.2317 -83.8194 126° Southeast 175 201 9,200  Level Indianapolis Center
11:19AM 39.2272 -83.8089 119° Southeast 173 199 9,200  Level Indianapolis Center
11:20AM 39.1989 -83.7575 125° Southeast 174 200 9,200  Level Indianapolis Center
11:21AM 39.1786 -83.7158 122° Southeast 174 200 9,200  Level Indianapolis Center
11:21AM 39.1733 -83.7050 122° Southeast 172 198 9,200  Level Indianapolis Center
11:22AM 39.1511 -83.6642 125° Southeast 175 201 9,200  Level Indianapolis Center
11:22AM 39.1456 -83.6506 118° Southeast 178 205 9,200  Level Indianapolis Center
11:23AM 39.1256 -83.6153 126° Southeast 178 205 9,200 -120 Level Indianapolis Center
11:24AM 39.1169 -83.5989 124° Southeast 178 205 9,100 -120 Descending Indianapolis Center
11:25AM 39.0889 -83.5461 124° Southeast 177 204 9,100  Level Indianapolis Center
11:26AM 39.0617 -83.4931 123° Southeast 176 203 9,200 60 Climbing Indianapolis Center
11:27AM 39.0311 -83.4328 123° Southeast 171 197 9,300  Climbing Indianapolis Center
11:28AM 39.0033 -83.3789 124° Southeast 177 204 9,300  Level Indianapolis Center
11:29AM 38.9747 -83.3267 125° Southeast 178 205 9,300 -120 Level Indianapolis Center
11:30AM 38.9467 -83.2728 124° Southeast 180 207 9,100 -120 Descending Indianapolis Center
11:31AM 38.9178 -83.2194 125° Southeast 181 208 9,100  Level Indianapolis Center
11:32AM 38.8889 -83.1636 124° Southeast 180 207 9,100  Level Indianapolis Center
11:33AM 38.8617 -83.1111 124° Southeast 179 206 9,100  Level Indianapolis Center
11:34AM 38.8328 -83.0575 125° Southeast 182 209 9,100  Level Indianapolis Center
11:35AM 38.8050 -83.0061 125° Southeast 177 204 9,100  Level Indianapolis Center
11:36AM 38.7781 -82.9525 123° Southeast 178 205 9,100  Level Indianapolis Center
11:37AM 38.7503 -82.8994 124° Southeast 178 205 9,100  Level Indianapolis Center
11:38AM 38.7222 -82.8478 125° Southeast 179 206 9,100  Level Indianapolis Center
11:39AM 38.6942 -82.7958 125° Southeast 178 205 9,100  Level Indianapolis Center
11:40AM 38.6611 -82.7328 124° Southeast 178 205 9,100  Level Indianapolis Center
11:41AM 38.6361 -82.6844 124° Southeast 182 209 9,100  Level Indianapolis Center
11:42AM 38.6028 -82.6231 125° Southeast 181 208 9,100  Level Indianapolis Center
11:43AM 38.5742 -82.5711 125° Southeast 179 206 9,100  Level Indianapolis Center
11:44AM 38.5464 -82.5189 124° Southeast 178 205 9,100  Level Indianapolis Center
11:45AM 38.5200 -82.4694 124° Southeast 178 205 9,100  Level Indianapolis Center
11:46AM 38.4903 -82.4164 126° Southeast 182 209 9,100  Level Indianapolis Center
11:47AM 38.4633 -82.3633 123° Southeast 179 206 9,100  Level Indianapolis Center
11:48AM 38.4347 -82.3119 125° Southeast 178 205 9,100  Level Indianapolis Center
11:49AM 38.4006 -82.2492 125° Southeast 179 206 9,100  Level Indianapolis Center
11:50AM 38.3725 -82.1975 125° Southeast 178 205 9,100  Level Indianapolis Center
11:51AM 38.3431 -82.1436 125° Southeast 183 211 9,100  Level Indianapolis Center
11:52AM 38.3139 -82.0922 126° Southeast 180 207 9,100  Level Indianapolis Center
11:53AM 38.2858 -82.0394 124° Southeast 181 208 9,100  Level Indianapolis Center
11:54AM 38.2581 -81.9869 124° Southeast 180 207 9,100  Level Indianapolis Center
11:55AM 38.2283 -81.9347 126° Southeast 182 209 9,100  Level Indianapolis Center
11:56AM 38.1992 -81.8806 124° Southeast 186 214 9,100  Level Indianapolis Center
11:57AM 38.1636 -81.8164 125° Southeast 186 214 9,100  Level Indianapolis Center
11:58AM 38.1344 -81.7633 125° Southeast 186 214 9,100  Level Indianapolis Center
11:59AM 38.1044 -81.7106 126° Southeast 186 214 9,100  Level Indianapolis Center
12:00PM 38.0750 -81.6581 125° Southeast 182 209 9,100  Level Indianapolis Center
12:01PM 38.0450 -81.6044 125° Southeast 185 213 9,100  Level Indianapolis Center
12:02PM 38.0153 -81.5511 125° Southeast 185 213 9,100  Level Indianapolis Center
12:03PM 37.9819 -81.5014 130° Southeast 186 214 9,100  Level Indianapolis Center
12:04PM 37.9464 -81.4561 135° Southeast 183 211 9,100  Level Indianapolis Center
12:06PM 37.9011 -81.4008 136° Southeast 188 216 9,100  Level Indianapolis Center
12:07PM 37.8658 -81.3528 133° Southeast 187 215 9,100  Level Indianapolis Center
12:08PM 37.8308 -81.3061 134° Southeast 185 213 9,100  Level Indianapolis Center
12:09PM 37.7989 -81.2625 133° Southeast 182 209 9,200  Climbing Indianapolis Center
12:10PM 37.7639 -81.2189 135° Southeast 186 214 9,200  Level Washington Center
12:11PM 37.7264 -81.1714 135° Southeast 191 220 9,200 -120 Level Washington Center
12:12PM 37.6911 -81.1217 132° Southeast 186 214 9,000 -120 Descending Washington Center
12:13PM 37.6558 -81.0744 133° Southeast 186 214 9,000  Level Washington Center
12:14PM 37.6164 -81.0244 135° Southeast 186 214 9,000  Level Washington Center
12:15PM 37.5831 -80.9775 132° Southeast 186 214 9,000  Level Washington Center
12:16PM 37.5475 -80.9303 134° Southeast 186 214 9,000  Level Washington Center
12:16PM 37.5411 -80.9214 132° Southeast 182 209 9,000  Level Indianapolis Center
12:17PM 37.5064 -80.8767 134° Southeast 182 209 9,000  Level Indianapolis Center
12:18PM 37.4803 -80.8444 136° Southeast 186 214 9,000  Level Washington Center
12:19PM 37.4450 -80.7975 133° Southeast 186 214 9,000  Level Washington Center
12:20PM 37.4114 -80.7508 132° Southeast 186 214 9,000  Level Washington Center
12:21PM 37.3778 -80.7067 134° Southeast 186 214 9,000  Level Washington Center
12:22PM 37.3444 -80.6600 132° Southeast 180 207 9,000  Level Washington Center
12:23PM 37.3106 -80.6186 136° Southeast 170 196 9,100  Climbing Washington Center
12:24PM 37.2789 -80.5775 134° Southeast 165 190 9,000  Descending Washington Center
12:25PM 37.2494 -80.5364 132° Southeast 165 190 9,100  Climbing Washington Center
12:26PM 37.2197 -80.4978 134° Southeast 165 190 9,000  Descending Washington Center
12:27PM 37.1881 -80.4567 134° Southeast 165 190 9,100  Climbing Washington Center
12:28PM 37.1561 -80.4183 136° Southeast 165 190 9,100  Level Washington Center
12:29PM 37.1206 -80.3692 132° Southeast 160 184 9,100  Level Washington Center
12:30PM 37.0889 -80.3306 136° Southeast 160 184 9,200  Climbing Washington Center
12:31PM 37.0550 -80.2894 136° Southeast 160 184 9,100 -60 Descending Washington Center
12:32PM 37.0233 -80.2461 132° Southeast 160 184 9,100  Level Washington Center
12:33PM 36.9956 -80.2078 132° Southeast 160 184 9,100  Level Washington Center
12:34PM 36.9636 -80.1669 134° Southeast 164 189 9,100  Level Washington Center
12:35PM 36.9319 -80.1261 134° Southeast 172 198 9,100  Level Washington Center
12:36PM 36.8981 -80.0853 136° Southeast 178 205 9,100  Level Washington Center
12:37PM 36.8642 -80.0392 133° Southeast 167 192 9,100  Level Washington Center
12:38PM 36.8322 -79.9983 134° Southeast 167 192 9,100  Level Washington Center
12:39PM 36.7983 -79.9547 134° Southeast 167 192 9,200  Climbing Washington Center
12:40PM 36.7686 -79.9142 132° Southeast 167 192 9,100  Descending Washington Center
12:41PM 36.7367 -79.8761 136° Southeast 167 192 9,200  Climbing Washington Center
12:42PM 36.7047 -79.8331 133° Southeast 167 192 9,100  Descending Washington Center
12:43PM 36.6708 -79.7897 134° Southeast 167 192 9,200  Climbing Washington Center
12:44PM 36.6328 -79.7436 136° Southeast 167 192 9,100 -60 Descending Washington Center
12:45PM 36.6008 -79.7006 133° Southeast 167 192 9,100  Level Washington Center
12:46PM 36.5647 -79.6572 136° Southeast 173 199 9,100  Level Washington Center
12:47PM 36.5328 -79.6167 134° Southeast 173 199 9,100  Level Washington Center
12:48PM 36.5028 -79.5764 133° Southeast 173 199 9,100  Level Washington Center
12:49PM 36.4708 -79.5361 135° Southeast 173 199 9,100  Level Washington Center
12:49PM 36.4528 -79.5172 140° Southeast 169 194 9,100  Level Washington Center
12:50PM 36.4367 -79.4931 130° Southeast 173 199 9,100  Level Washington Center
12:50PM 36.4086 -79.4633 140° Southeast 170 196 9,100  Level Washington Center
12:51PM 36.4047 -79.4528 115° Southeast 173 199 9,100  Level Washington Center
12:51PM 36.3764 -79.4203 137° Southeast 173 199 9,100  Level Washington Center
12:52PM 36.3667 -79.4019 123° Southeast 173 199 9,100  Level Washington Center
12:52PM 36.3444 -79.3775 138° Southeast 175 201 9,100  Level Washington Center
12:53PM 36.3344 -79.3642 133° Southeast 173 199 9,100  Level Washington Center
12:54PM 36.2983 -79.3186 135° Southeast 173 199 9,100  Level Washington Center
12:54PM 36.2722 -79.2864 135° Southeast 176 203 9,100  Level Washington Center
12:55PM 36.2400 -79.2489 137° Southeast 175 201 9,100  Level Washington Center
12:56PM 36.2278 -79.2356 139° Southeast 173 199 9,100  Level Washington Center
12:56PM 36.1969 -79.2264 167° South 167 192 9,100  Level Washington Center
12:57PM 36.1886 -79.2208 152° Southeast 165 190 9,100  Level Washington Center
12:57PM 36.1556 -79.2089 164° South 160 184 9,100  Level Washington Center
12:58PM 36.1414 -79.2031 162° South 165 190 9,100  Level Washington Center
12:58PM 36.1103 -79.1967 171° South 163 188 9,100  Level Washington Center
12:59PM 36.1019 -79.1886 142° Southeast 160 184 9,100  Level Washington Center
12:59PM 36.0667 -79.1817 171° South 166 191 9,100  Level Washington Center
01:00PM 36.0214 -79.1669 165° South 163 188 9,100  Level Washington Center
01:01PM 35.9758 -79.1519 165° South 161 185 9,100  Level Washington Center
01:02PM 35.9322 -79.1475 175° South 159 183 9,100  Level Washington Center
01:03PM 35.8881 -79.1531 186° South 152 175 9,100  Level Washington Center
01:04PM 35.8464 -79.1589 186° South 157 181 9,100  Level Washington Center
01:05PM 35.8025 -79.1622 184° South 160 184 9,100  Level Washington Center
01:06PM 35.7586 -79.1603 178° South 159 183 9,100  Level Washington Center
01:07PM 35.7083 -79.1631 183° South 158 182 9,100  Level Washington Center
01:09PM 35.6515 -79.1500 180° South  Level FlightAware Approximate
01:16PM 35.3160 -79.1575 183° South  Level FlightAware Approximate
01:17PM 35.2681 -79.1601 183° South  Level FlightAware Approximate
01:18PM 35.2202 -79.1628 183° South  Level FlightAware Approximate
01:19PM 35.1723 -79.1654 183° South  Level FlightAware Approximate
01:20PM 35.1244 -79.1667 180° South  Level FlightAware Approximate
01:21PM 35.0764 -79.1667 180° South  Level FlightAware Approximate
01:22PM 35.0298 -79.1789 195° South  Level FlightAware Approximate
01:23PM 35.0167 -79.1833 195° South  Level FlightAware Approximate
01:24PM 35.0199 -79.1910 195° South  Level Estimated
01:25PM 35.0167 -79.1833 195° South  Level FlightAware Approximate
01:26PM 35.0199 -79.1910 195° South  Level Estimated